createdAt,value
2022-08-03T00:00:21.564Z,21.80
2022-08-03T00:02:48.029Z,21.77
2022-08-03T00:05:14.489Z,21.70
2022-08-03T00:07:41.159Z,21.64
2022-08-03T00:10:08.040Z,21.61
2022-08-03T00:12:36.285Z,21.62
2022-08-03T00:15:02.730Z,21.66
2022-08-03T00:17:29.445Z,21.67
2022-08-03T00:20:15.846Z,21.62
2022-08-03T00:22:42.280Z,21.59
2022-08-03T00:25:08.677Z,21.62
2022-08-03T00:27:35.063Z,21.64
2022-08-03T00:30:02.105Z,21.63
2022-08-03T00:32:28.638Z,21.64
2022-08-03T00:34:58.869Z,21.63
2022-08-03T00:37:41.737Z,21.63
2022-08-03T00:40:11.345Z,21.65
2022-08-03T00:42:51.230Z,21.61
2022-08-03T00:45:19.159Z,21.59
2022-08-03T00:47:45.939Z,21.60
2022-08-03T00:50:13.149Z,21.60
2022-08-03T00:52:40.188Z,21.60
2022-08-03T00:55:06.834Z,21.57
2022-08-03T00:57:33.646Z,21.56
2022-08-03T01:00:00.800Z,21.57
2022-08-03T01:02:28.832Z,21.50
2022-08-03T01:04:55.920Z,21.48
2022-08-03T01:07:56.472Z,21.48
2022-08-03T01:10:58.722Z,21.48
2022-08-03T01:14:04.443Z,21.49
2022-08-03T01:16:43.609Z,21.43
2022-08-03T01:19:35.622Z,21.44
2022-08-03T01:22:21.093Z,21.41
2022-08-03T01:25:05.914Z,21.40
2022-08-03T01:27:47.425Z,21.41
2022-08-03T01:30:14.004Z,21.40
2022-08-03T01:33:01.006Z,21.37
2022-08-03T01:35:38.606Z,21.36
2022-08-03T01:38:15.107Z,21.33
2022-08-03T01:40:44.523Z,21.34
2022-08-03T01:43:15.025Z,21.30
2022-08-03T01:46:04.083Z,21.32
2022-08-03T01:48:32.127Z,21.31
2022-08-03T01:51:00.773Z,21.29
2022-08-03T01:53:28.921Z,21.26
2022-08-03T01:55:57.340Z,21.23
2022-08-03T01:58:24.937Z,21.23
2022-08-03T02:00:52.989Z,21.26
2022-08-03T02:03:23.123Z,21.23
2022-08-03T02:05:57.239Z,21.21
2022-08-03T02:08:33.645Z,21.19
2022-08-03T02:11:02.216Z,21.19
2022-08-03T02:13:29.497Z,21.17
2022-08-03T02:15:57.961Z,21.18
2022-08-03T02:18:25.759Z,21.18
2022-08-03T02:20:52.350Z,21.18
2022-08-03T02:23:19.532Z,21.12
2022-08-03T02:25:50.784Z,21.09
2022-08-03T02:28:22.136Z,21.10
2022-08-03T02:30:54.746Z,21.07
2022-08-03T02:33:27.367Z,21.01
2022-08-03T02:35:54.914Z,20.99
2022-08-03T02:38:26.022Z,21.01
2022-08-03T02:40:56.977Z,21.02
2022-08-03T02:43:25.294Z,21.05
2022-08-03T02:45:53.464Z,21.04
2022-08-03T02:48:29.122Z,21.05
2022-08-03T02:50:59.777Z,21.05
2022-08-03T02:53:28.225Z,21.02
2022-08-03T02:55:56.620Z,21.03
2022-08-03T02:58:24.481Z,20.97
2022-08-03T03:00:52.600Z,20.91
2022-08-03T03:03:20.812Z,20.87
2022-08-03T03:05:54.567Z,20.84
2022-08-03T03:08:26.866Z,20.82
2022-08-03T03:10:57.154Z,20.84
2022-08-03T03:13:24.539Z,20.80
2022-08-03T03:15:52.445Z,20.78
2022-08-03T03:18:22.615Z,20.81
2022-08-03T03:20:52.409Z,20.82
2022-08-03T03:23:21.379Z,20.75
2022-08-03T03:25:48.765Z,20.77
2022-08-03T03:28:15.556Z,20.74
2022-08-03T03:30:42.777Z,20.69
2022-08-03T03:33:09.221Z,20.70
2022-08-03T03:35:38.963Z,20.69
2022-08-03T03:38:06.856Z,20.67
2022-08-03T03:40:35.289Z,20.65
2022-08-03T03:43:01.831Z,20.64
2022-08-03T03:45:30.895Z,20.62
2022-08-03T03:48:00.028Z,20.59
2022-08-03T03:50:28.057Z,20.61
2022-08-03T03:52:54.514Z,20.60
2022-08-03T03:55:20.960Z,20.60
2022-08-03T03:57:47.377Z,20.60
2022-08-03T04:00:16.278Z,20.52
2022-08-03T04:02:42.738Z,20.52
2022-08-03T04:05:28.238Z,20.53
2022-08-03T04:08:24.752Z,20.51
2022-08-03T04:11:30.127Z,20.51
2022-08-03T04:14:17.890Z,20.50
2022-08-03T04:16:51.972Z,20.47
2022-08-03T04:19:24.508Z,20.48
2022-08-03T04:21:57.169Z,20.47
2022-08-03T04:24:30.468Z,20.46
2022-08-03T04:26:59.212Z,20.41
2022-08-03T04:29:26.665Z,20.36
2022-08-03T04:31:57.414Z,20.34
2022-08-03T04:34:23.958Z,20.37
2022-08-03T04:36:54.833Z,20.36
2022-08-03T04:39:26.586Z,20.32
2022-08-03T04:42:02.195Z,20.27
2022-08-03T04:44:42.934Z,20.31
2022-08-03T04:47:09.501Z,20.31
2022-08-03T04:49:37.809Z,20.33
2022-08-03T04:52:07.129Z,20.34
2022-08-03T04:54:40.363Z,20.37
2022-08-03T04:57:06.770Z,20.41
2022-08-03T04:59:33.191Z,20.41
2022-08-03T05:02:05.604Z,20.44
2022-08-03T05:04:32.042Z,20.45
2022-08-03T05:06:58.459Z,20.44
2022-08-03T05:09:48.920Z,20.46
2022-08-03T05:12:13.789Z,20.48
2022-08-03T05:14:40.369Z,20.49
2022-08-03T05:17:07.344Z,20.47
2022-08-03T05:19:33.820Z,20.44
2022-08-03T05:22:00.282Z,20.42
2022-08-03T05:24:27.273Z,20.46
2022-08-03T05:26:53.766Z,20.47
2022-08-03T05:29:20.173Z,20.51
2022-08-03T05:31:46.598Z,20.53
2022-08-03T05:34:13.051Z,20.54
2022-08-03T05:36:39.606Z,20.52
2022-08-03T05:39:06.018Z,20.52
2022-08-03T05:41:36.658Z,20.51
2022-08-03T05:44:04.192Z,20.46
2022-08-03T05:46:30.575Z,20.39
2022-08-03T05:48:57.054Z,20.38
2022-08-03T05:51:23.507Z,20.41
2022-08-03T05:53:49.921Z,20.39
2022-08-03T05:56:18.015Z,20.45
2022-08-03T05:58:46.364Z,20.48
2022-08-03T06:01:12.999Z,20.48
2022-08-03T06:03:40.071Z,20.45
2022-08-03T06:06:06.476Z,20.48
2022-08-03T06:08:32.909Z,20.49
2022-08-03T06:10:59.404Z,20.51
2022-08-03T06:13:25.841Z,20.53
2022-08-03T06:15:52.248Z,20.54
2022-08-03T06:18:18.771Z,20.50
2022-08-03T06:20:45.281Z,20.48
2022-08-03T06:23:16.078Z,20.47
2022-08-03T06:25:43.295Z,20.48
2022-08-03T06:28:15.093Z,20.49
2022-08-03T06:30:50.495Z,20.51
2022-08-03T06:33:17.047Z,20.55
2022-08-03T06:35:43.464Z,20.62
2022-08-03T06:38:12.907Z,20.65
2022-08-03T06:40:42.037Z,20.70
2022-08-03T06:43:12.535Z,20.73
2022-08-03T06:45:39.699Z,20.73
2022-08-03T06:48:11.676Z,20.74
2022-08-03T06:50:39.958Z,20.73
2022-08-03T06:53:06.368Z,20.72
2022-08-03T06:55:32.784Z,20.70
2022-08-03T06:57:59.835Z,20.72
2022-08-03T07:00:30.840Z,20.74
2022-08-03T07:02:58.403Z,20.77
2022-08-03T07:05:25.322Z,20.82
2022-08-03T07:07:57.098Z,20.88
2022-08-03T07:10:23.745Z,20.91
2022-08-03T07:12:55.865Z,20.96
2022-08-03T07:15:55.111Z,21.02
2022-08-03T07:18:09.970Z,20.99
2022-08-03T07:20:36.643Z,20.94
2022-08-03T07:23:03.291Z,20.96
2022-08-03T07:25:29.782Z,21.03
2022-08-03T07:27:56.318Z,21.06
2022-08-03T07:30:22.973Z,21.06
2022-08-03T07:32:50.630Z,21.06
2022-08-03T07:35:25.318Z,21.10
2022-08-03T07:37:54.600Z,21.16
2022-08-03T07:40:22.148Z,21.20
2022-08-03T07:42:48.681Z,21.26
2022-08-03T07:45:21.369Z,21.22
2022-08-03T07:47:53.421Z,21.29
2022-08-03T07:50:20.203Z,21.37
2022-08-03T07:52:50.091Z,21.43
2022-08-03T07:55:18.408Z,21.49
2022-08-03T07:57:44.841Z,21.53
2022-08-03T08:00:18.381Z,21.53
2022-08-03T08:02:45.122Z,21.52
2022-08-03T08:05:12.425Z,21.57
2022-08-03T08:07:40.162Z,21.60
2022-08-03T08:10:09.813Z,21.59
2022-08-03T08:12:37.726Z,21.63
2022-08-03T08:15:04.784Z,21.68
2022-08-03T08:17:31.205Z,21.73
2022-08-03T08:19:57.891Z,21.72
2022-08-03T08:22:30.126Z,21.83
2022-08-03T08:24:58.121Z,21.89
2022-08-03T08:27:24.522Z,21.96
2022-08-03T08:29:54.171Z,22.05
2022-08-03T08:32:23.269Z,22.07
2022-08-03T08:34:49.814Z,22.08
2022-08-03T08:37:16.382Z,22.08
2022-08-03T08:39:42.790Z,21.98
2022-08-03T08:42:10.089Z,22.02
2022-08-03T08:44:36.596Z,22.06
2022-08-03T08:47:04.114Z,22.09
2022-08-03T08:49:32.819Z,22.14
2022-08-03T08:52:01.664Z,22.25
2022-08-03T08:54:32.393Z,22.39
2022-08-03T08:57:02.749Z,22.49
2022-08-03T08:59:48.229Z,22.49
2022-08-03T09:02:16.441Z,22.58
2022-08-03T09:04:45.461Z,22.65
2022-08-03T09:07:19.980Z,22.75
2022-08-03T09:10:11.419Z,22.79
2022-08-03T09:12:45.018Z,22.80
2022-08-03T09:15:32.089Z,22.84
2022-08-03T09:18:00.622Z,22.88
2022-08-03T09:20:30.471Z,22.91
2022-08-03T09:23:26.290Z,22.96
2022-08-03T09:25:58.159Z,23.08
2022-08-03T09:29:01.328Z,23.06
2022-08-03T09:31:33.476Z,23.03
2022-08-03T09:34:11.806Z,23.09
2022-08-03T09:36:42.890Z,23.16
2022-08-03T09:39:11.932Z,23.31
2022-08-03T09:41:43.977Z,23.25
2022-08-03T09:44:24.354Z,23.22
2022-08-03T09:46:56.168Z,23.31
2022-08-03T09:49:23.346Z,23.34
2022-08-03T09:52:33.144Z,23.34
2022-08-03T09:54:36.610Z,23.43
2022-08-03T09:57:03.125Z,23.51
2022-08-03T09:59:31.228Z,23.59
2022-08-03T10:01:59.719Z,23.64
2022-08-03T10:04:26.598Z,23.64
2022-08-03T10:07:10.515Z,23.67
2022-08-03T10:09:38.065Z,23.72
2022-08-03T10:12:09.482Z,23.76
2022-08-03T10:14:38.220Z,23.82
2022-08-03T10:17:05.167Z,23.80
2022-08-03T10:19:31.684Z,23.86
2022-08-03T10:22:03.805Z,23.92
2022-08-03T10:24:33.696Z,23.98
2022-08-03T10:27:07.967Z,24.04
2022-08-03T10:29:39.435Z,24.10
2022-08-03T10:32:35.351Z,24.26
2022-08-03T10:35:20.152Z,24.28
2022-08-03T10:38:03.126Z,24.28
2022-08-03T10:43:27.332Z,24.35
2022-08-03T10:45:54.242Z,24.38
2022-08-03T10:48:22.035Z,24.48
2022-08-03T10:50:50.095Z,24.42
2022-08-03T10:53:18.610Z,24.48
2022-08-03T10:56:05.478Z,24.50
2022-08-03T10:58:53.498Z,24.53
2022-08-03T11:02:00.595Z,24.60
2022-08-03T11:04:29.586Z,24.69
2022-08-03T11:07:14.994Z,24.79
2022-08-03T11:09:48.306Z,24.81
2022-08-03T11:12:31.094Z,24.94
2022-08-03T11:15:07.337Z,25.06
2022-08-03T11:17:46.495Z,25.01
2022-08-03T11:21:00.194Z,25.06
2022-08-03T11:24:05.459Z,25.05
2022-08-03T11:26:33.870Z,25.02
2022-08-03T11:29:29.580Z,24.95
2022-08-03T11:31:56.543Z,24.99
2022-08-03T11:34:24.557Z,25.05
2022-08-03T11:37:25.359Z,25.20
2022-08-03T11:39:55.353Z,25.32
2022-08-03T11:42:24.523Z,25.46
2022-08-03T11:44:52.217Z,25.59
2022-08-03T11:47:20.512Z,25.64
2022-08-03T11:49:48.182Z,25.67
2022-08-03T11:52:16.051Z,25.78
2022-08-03T11:54:43.640Z,25.88
2022-08-03T11:57:10.233Z,25.89
2022-08-03T11:59:38.729Z,25.87
2022-08-03T12:02:08.935Z,25.92
2022-08-03T12:04:53.536Z,26.02
2022-08-03T12:07:24.973Z,26.08
2022-08-03T12:10:14.558Z,26.14
2022-08-03T12:12:46.585Z,26.26
2022-08-03T12:15:13.521Z,26.31
2022-08-03T12:17:41.338Z,26.36
2022-08-03T12:20:09.798Z,26.41
2022-08-03T12:22:38.642Z,26.45
2022-08-03T12:25:09.461Z,26.38
2022-08-03T12:27:36.343Z,26.38
2022-08-03T12:30:04.093Z,26.42
2022-08-03T12:32:31.500Z,26.51
2022-08-03T12:35:04.354Z,26.56
2022-08-03T12:37:31.265Z,26.55
2022-08-03T12:40:05.249Z,26.60
2022-08-03T12:42:38.049Z,26.67
2022-08-03T12:45:22.913Z,26.71
2022-08-03T12:47:51.139Z,26.70
2022-08-03T12:50:31.923Z,26.71
2022-08-03T12:53:00.024Z,26.61
2022-08-03T12:55:57.867Z,26.74
2022-08-03T12:58:34.882Z,26.89
2022-08-03T13:01:04.983Z,26.99
2022-08-03T13:03:49.735Z,27.05
2022-08-03T13:06:20.242Z,27.12
2022-08-03T13:08:48.245Z,27.17
2022-08-03T13:11:50.539Z,27.23
2022-08-03T13:14:16.741Z,27.23
2022-08-03T13:16:47.120Z,27.23
2022-08-03T13:19:15.536Z,27.28
2022-08-03T13:21:53.800Z,27.33
2022-08-03T13:24:30.538Z,27.43
2022-08-03T13:26:58.365Z,27.38
2022-08-03T13:29:24.775Z,27.39
2022-08-03T13:31:51.495Z,27.37
2022-08-03T13:34:23.012Z,27.42
2022-08-03T13:39:58.434Z,27.67
2022-08-03T13:42:33.944Z,27.81
2022-08-03T13:45:01.386Z,27.82
2022-08-03T13:47:28.401Z,27.82
2022-08-03T13:50:01.845Z,27.85
2022-08-03T13:52:33.843Z,27.90
2022-08-03T13:55:01.315Z,27.76
2022-08-03T13:58:03.179Z,27.60
2022-08-03T14:00:26.089Z,27.59
2022-08-03T14:03:01.830Z,27.58
2022-08-03T14:05:31.961Z,27.63
2022-08-03T14:08:04.177Z,27.68
2022-08-03T14:10:30.933Z,27.76
2022-08-03T14:13:00.175Z,27.89
2022-08-03T14:15:28.367Z,27.95
2022-08-03T14:17:55.054Z,27.82
2022-08-03T14:20:38.761Z,27.77
2022-08-03T14:23:08.635Z,27.80
2022-08-03T14:25:43.194Z,27.82
2022-08-03T14:28:16.668Z,27.81
2022-08-03T14:30:43.138Z,27.80
2022-08-03T14:33:09.553Z,27.68
2022-08-03T14:35:35.960Z,27.70
2022-08-03T14:38:02.407Z,27.76
2022-08-03T14:40:28.934Z,27.83
2022-08-03T14:42:55.386Z,27.83
2022-08-03T14:45:21.949Z,27.88
2022-08-03T14:50:10.338Z,27.91
2022-08-03T14:50:42.848Z,27.92
2022-08-03T14:53:10.775Z,27.84
2022-08-03T14:55:38.856Z,27.79
2022-08-03T14:58:20.826Z,27.75
2022-08-03T15:00:49.037Z,27.73
2022-08-03T15:03:16.727Z,27.82
2022-08-03T15:05:43.634Z,27.74
2022-08-03T15:08:10.059Z,27.82
2022-08-03T15:10:44.029Z,27.90
2022-08-03T15:13:12.597Z,27.91
2022-08-03T15:15:38.983Z,27.90
2022-08-03T15:18:05.473Z,27.91
2022-08-03T15:20:43.384Z,27.92
2022-08-03T15:23:11.764Z,27.97
2022-08-03T15:26:03.787Z,27.94
2022-08-03T15:28:24.817Z,27.95
2022-08-03T15:30:54.705Z,27.95
2022-08-03T15:33:21.239Z,27.96
2022-08-03T15:35:47.947Z,27.90
2022-08-03T15:38:14.707Z,27.90
2022-08-03T15:40:41.386Z,27.90
2022-08-03T15:43:07.901Z,27.86
2022-08-03T15:45:36.069Z,27.83
2022-08-03T15:48:06.334Z,27.83
2022-08-03T15:50:32.880Z,27.81
2022-08-03T15:52:59.293Z,27.79
2022-08-03T15:55:25.840Z,27.78
2022-08-03T15:59:09.240Z,27.75
2022-08-03T16:00:39.569Z,27.62
2022-08-03T16:03:06.045Z,27.54
2022-08-03T16:05:32.884Z,27.54
2022-08-03T16:08:04.233Z,27.50
2022-08-03T16:10:32.207Z,27.47
2022-08-03T16:12:59.754Z,27.51
2022-08-03T16:15:26.208Z,27.54
2022-08-03T16:17:52.902Z,27.56
2022-08-03T16:20:30.931Z,27.59
2022-08-03T16:23:02.524Z,27.57
2022-08-03T16:25:39.120Z,27.49
2022-08-03T16:28:08.242Z,27.47
2022-08-03T16:30:40.154Z,27.42
2022-08-03T16:33:06.538Z,27.41
2022-08-03T16:35:32.999Z,27.42
2022-08-03T16:37:59.414Z,27.45
2022-08-03T16:40:26.481Z,27.48
2022-08-03T16:42:52.890Z,27.48
2022-08-03T16:45:19.425Z,27.50
2022-08-03T16:47:46.029Z,27.53
2022-08-03T16:50:19.094Z,27.51
2022-08-03T16:52:47.086Z,27.44
2022-08-03T16:55:15.926Z,27.42
2022-08-03T16:57:59.291Z,27.45
2022-08-03T17:00:34.311Z,27.40
2022-08-03T17:03:18.905Z,27.39
2022-08-03T17:05:48.248Z,27.38
2022-08-03T17:08:26.338Z,27.39
2022-08-03T17:10:53.595Z,27.43
2022-08-03T17:13:22.884Z,27.43
2022-08-03T17:16:00.831Z,27.41
2022-08-03T17:18:34.008Z,27.38
2022-08-03T17:21:05.011Z,27.33
2022-08-03T17:23:59.881Z,27.30
2022-08-03T17:26:30.386Z,27.25
2022-08-03T17:29:11.445Z,27.23
2022-08-03T17:31:48.915Z,27.18
2022-08-03T17:34:16.920Z,27.14
2022-08-03T17:39:57.216Z,27.09
2022-08-03T17:42:31.187Z,27.04
2022-08-03T17:45:02.358Z,27.02
2022-08-03T17:47:41.392Z,27.02
2022-08-03T17:50:24.628Z,27.03
2022-08-03T17:53:14.293Z,27.00
2022-08-03T17:55:57.871Z,26.99
2022-08-03T17:58:56.266Z,26.97
2022-08-03T18:02:03.401Z,26.98
2022-08-03T18:04:41.713Z,26.97
2022-08-03T18:07:12.448Z,26.92
2022-08-03T18:10:03.698Z,26.87
2022-08-03T18:12:41.332Z,26.79
2022-08-03T18:15:13.298Z,26.74
2022-08-03T18:18:01.833Z,26.74
2022-08-03T18:20:34.483Z,26.76
2022-08-03T18:23:08.717Z,26.74
2022-08-03T18:25:45.202Z,26.76
2022-08-03T18:28:16.307Z,26.72
2022-08-03T18:30:54.176Z,26.67
2022-08-03T18:34:16.746Z,26.67
2022-08-03T18:36:17.468Z,26.65
2022-08-03T18:38:51.821Z,26.63
2022-08-03T18:41:33.178Z,26.64
2022-08-03T18:44:08.222Z,26.64
2022-08-03T18:46:44.929Z,26.65
2022-08-03T18:49:35.410Z,26.65
2022-08-03T18:52:15.215Z,26.65
2022-08-03T18:55:02.588Z,26.60
2022-08-03T18:57:46.937Z,26.55
2022-08-03T19:00:24.343Z,26.53
2022-08-03T19:03:09.988Z,26.50
2022-08-03T19:05:53.746Z,26.49
2022-08-03T19:08:49.005Z,26.48
2022-08-03T19:14:39.258Z,26.46
2022-08-03T19:17:11.214Z,26.41
2022-08-03T19:19:44.035Z,26.38
2022-08-03T19:22:16.264Z,26.35
2022-08-03T19:25:04.660Z,26.31
2022-08-03T19:27:32.105Z,26.26
2022-08-03T19:30:03.762Z,26.20
2022-08-03T19:32:33.201Z,26.19
2022-08-03T19:35:01.893Z,26.16
2022-08-03T19:37:38.154Z,26.12
2022-08-03T19:40:12.273Z,26.09
2022-08-03T19:42:43.264Z,26.08
2022-08-03T19:45:14.517Z,26.06
2022-08-03T19:47:59.538Z,26.05
2022-08-03T19:50:26.549Z,26.00
2022-08-03T19:52:57.741Z,25.97
2022-08-03T19:55:28.635Z,25.95
2022-08-03T19:58:01.035Z,25.89
2022-08-03T20:00:30.584Z,25.85
2022-08-03T20:03:05.089Z,25.82
2022-08-03T20:05:52.318Z,25.79
2022-08-03T20:08:21.935Z,25.78
2022-08-03T20:10:51.628Z,25.75
2022-08-03T20:13:19.517Z,25.71
2022-08-03T20:15:46.375Z,25.68
2022-08-03T20:18:16.873Z,25.67
2022-08-03T20:20:47.910Z,25.65
2022-08-03T20:23:18.125Z,25.63
2022-08-03T20:25:58.156Z,25.62
2022-08-03T20:28:50.324Z,25.57
2022-08-03T20:31:18.746Z,25.54
2022-08-03T20:33:46.771Z,25.49
2022-08-03T20:36:15.888Z,25.46
2022-08-03T20:41:31.118Z,25.40
2022-08-03T20:44:00.737Z,25.37
2022-08-03T20:46:31.155Z,25.32
2022-08-03T20:49:05.048Z,25.28
2022-08-03T20:51:50.604Z,25.24
2022-08-03T20:54:29.820Z,25.23
2022-08-03T20:57:03.675Z,25.21
2022-08-03T20:59:46.799Z,25.21
2022-08-03T21:02:19.519Z,25.18
2022-08-03T21:04:55.883Z,25.14
2022-08-03T21:07:24.089Z,25.11
2022-08-03T21:09:52.694Z,25.09
2022-08-03T21:12:44.438Z,25.06
2022-08-03T21:13:01.611Z,26.46
2022-08-03T21:13:07.250Z,25.42
2022-08-03T21:16:04.107Z,25.05
2022-08-03T21:18:05.128Z,25.02
2022-08-03T21:20:34.585Z,24.99
2022-08-03T21:23:01.642Z,24.97
2022-08-03T21:25:30.927Z,24.95
2022-08-03T21:27:58.386Z,24.92
2022-08-03T21:30:27.066Z,24.92
2022-08-03T21:32:54.796Z,24.90
2022-08-03T21:35:23.683Z,24.89
2022-08-03T21:38:11.013Z,24.90
2022-08-03T21:40:39.324Z,24.90
2022-08-03T21:43:06.315Z,24.89
2022-08-03T21:45:41.954Z,24.86
2022-08-03T21:48:11.320Z,24.83
2022-08-03T21:50:38.866Z,24.81
2022-08-03T21:53:08.035Z,24.77
2022-08-03T21:55:42.209Z,24.73
2022-08-03T21:58:12.365Z,24.70
2022-08-03T22:00:41.946Z,24.66
2022-08-03T22:03:15.320Z,24.59
2022-08-03T22:05:44.778Z,24.57
2022-08-03T22:08:13.319Z,24.52
2022-08-03T22:10:40.508Z,24.48
2022-08-03T22:13:06.993Z,24.47
2022-08-03T22:15:33.406Z,24.44
2022-08-03T22:18:03.396Z,24.42
2022-08-03T22:20:29.992Z,24.40
2022-08-03T22:23:01.960Z,24.37
2022-08-03T22:25:32.431Z,24.34
2022-08-03T22:28:09.822Z,24.30
2022-08-03T22:30:37.549Z,24.28
2022-08-03T22:33:11.371Z,24.30
2022-08-03T22:35:48.500Z,24.30
2022-08-03T22:38:16.535Z,24.31
2022-08-03T22:40:43.654Z,24.29
2022-08-03T22:43:10.332Z,24.27
2022-08-03T22:46:10.138Z,24.25
2022-08-03T22:48:24.458Z,24.21
2022-08-03T22:50:50.920Z,24.18
2022-08-03T22:53:20.508Z,24.15
2022-08-03T22:55:51.539Z,24.12
2022-08-03T22:58:20.848Z,24.10
2022-08-03T23:00:55.466Z,24.08
2022-08-03T23:03:25.359Z,24.04
2022-08-03T23:06:11.775Z,24.03
2022-08-03T23:08:40.350Z,24.00
2022-08-03T23:11:10.185Z,23.98
2022-08-03T23:13:39.709Z,23.96
2022-08-03T23:16:08.565Z,23.95
2022-08-03T23:18:37.599Z,23.92
2022-08-03T23:21:11.049Z,23.91
2022-08-03T23:23:44.721Z,23.91
2022-08-03T23:26:12.955Z,23.90
2022-08-03T23:28:40.898Z,23.91
2022-08-03T23:31:08.454Z,23.92
2022-08-03T23:33:38.466Z,23.91
2022-08-03T23:36:27.819Z,23.91
2022-08-03T23:38:53.678Z,23.89
2022-08-03T23:41:20.302Z,23.87
2022-08-03T23:43:51.888Z,23.84
2022-08-03T23:46:22.369Z,23.84
2022-08-03T23:48:50.126Z,23.80
2022-08-03T23:51:29.919Z,23.82
2022-08-03T23:54:14.888Z,23.82
2022-08-03T23:57:27.718Z,23.82
